Weather at Augusta Regional At Bush Field

Public forecast

Using degrees Fahrenheit for public forecast. Weather courtesy of forecast.io.

Current aviation weather report (METAR) for Augusta Regional At Bush Field

Retrieved 2021/03/09 07:53 UTC (43 minutes ago):

KAGS 090753Z AUTO 00000KT 6SM BR CLR 00/M01 A3051 RMK AO2 SLP331 T00001011

Aviation forecast (TAF) for Augusta Regional At Bush Field

Retrieved 2021/03/09 06:24 UTC (2 hours ago):

TAF KAGS 090521Z 0906/1006 00000KT P6SM FEW250 FM091500 24006KT P6SM SKC FM100000 00000KT P6SM SCT250